Portada
METAR-TAF:

METAR-TAF

Aeropuertos :

Aeropuerto de Uagadugú

Uagadugú, Burkina Faso

latitud: 12-21N, longitud: 001-31W, altitud: 316 m

Observación

El informe se hizo hace 48 minutos, a las 19:00 UTC
Viento calma
Temperatura 35°C
Humedad 30%
Presión 1008 hPa
Visibilidad 10 km o más
Escasas nubes a una altura de 2000 ft

METAR: DFFD 181900Z 00000KT 9999 FEW020 35/15 Q1008 NOSIG

Hora: 19:48 (19:48 UTC)

Pronóstico

El informe se hizo hace 2 horas y 48 minutos, a las 17:00 UTC
Pronóstico válido del 18 a las 18 UTC al 19 a las 24 UTC
Viento 6 kt con dirección variable
Visibilidad: 8000 m
Probabilidad 30% :
Temporalmente
del 18 a las 18 UTC al 19 a las 02 UTC
Nubes dispersas a una altura de 2600 ft
Escasas nubes a una altura de 4000 ft, Cumulonimbus.
tormenta

TAF: DFFD 181700Z 1818/1924 VRB06KT 8000 NSC PROB30 TEMPO 1818/1902 TS SCT026 FEW040CB

Observaciones y pronósticos meteorológicos de más de 4000 aeropuertos (mensajes METAR y TAF).

Los puntos amarillos y rojos representan las estaciones disponibles.

Ponga el ratón en el punto deseado para ver el nombre de la estación.

Haga clic para ver las observaciones y los pronósticos meteorológicos.

Para cambiar el mapa : haga clic en los botones verdes con una cruz de color negro para hacer un zoom, en el botón verde con un guión para alejar o en las flechas verdes para mapas adyacentes.


METAR-TAF: